createdAt,value
2022-11-01T00:00:59.386Z,62.23
2022-11-01T00:01:59.423Z,62.81
2022-11-01T00:02:59.348Z,63.76
2022-11-01T00:03:59.329Z,64.15
2022-11-01T00:04:59.309Z,64.63
2022-11-01T00:05:59.296Z,65.23
2022-11-01T00:06:59.272Z,65.91
2022-11-01T00:07:59.661Z,66.19
2022-11-01T00:08:59.256Z,67.72
2022-11-01T00:09:59.229Z,66.74
2022-11-01T00:10:59.204Z,66.86
2022-11-01T00:11:59.204Z,66.74
2022-11-01T00:12:59.491Z,67.91
2022-11-01T00:13:59.145Z,68.21
2022-11-01T00:14:59.127Z,67.44
2022-11-01T00:15:59.118Z,67.25
2022-11-01T00:16:59.089Z,67.54
2022-11-01T00:17:59.074Z,67.69
2022-11-01T00:18:59.059Z,66.93
2022-11-01T00:19:59.038Z,66.77
2022-11-01T00:20:59.022Z,66.48
2022-11-01T00:21:59.002Z,66.54
2022-11-01T00:22:59.275Z,67.88
2022-11-01T00:23:58.962Z,66.54
2022-11-01T00:24:58.945Z,66.58
2022-11-01T00:25:58.926Z,65.71
2022-11-01T00:26:58.914Z,66.64
2022-11-01T00:27:59.004Z,67.54
2022-11-01T00:28:58.881Z,68.49
2022-11-01T00:29:58.856Z,68.94
2022-11-01T00:30:58.840Z,69.35
2022-11-01T00:31:58.818Z,69.70
2022-11-01T00:32:58.806Z,69.74
2022-11-01T00:33:58.788Z,68.49
2022-11-01T00:34:58.766Z,68.78
2022-11-01T00:35:58.748Z,69.26
2022-11-01T00:36:58.732Z,69.07
2022-11-01T00:37:58.927Z,69.07
2022-11-01T00:38:58.699Z,68.59
2022-11-01T00:39:58.678Z,67.88
2022-11-01T00:40:58.653Z,67.63
2022-11-01T00:41:58.639Z,67.72
2022-11-01T00:42:58.623Z,66.67
2022-11-01T00:43:58.623Z,67.63
2022-11-01T00:44:58.582Z,68.01
2022-11-01T00:45:58.562Z,68.21
2022-11-01T00:46:58.549Z,68.78
2022-11-01T00:47:58.781Z,69.17
2022-11-01T00:48:58.513Z,68.94
2022-11-01T00:49:58.495Z,68.94
2022-11-01T00:50:58.494Z,69.45
2022-11-01T00:51:58.455Z,69.54
2022-11-01T00:52:58.438Z,69.26
2022-11-01T00:53:58.418Z,68.97
2022-11-01T00:54:58.406Z,68.68
2022-11-01T00:55:58.387Z,67.91
2022-11-01T00:56:58.368Z,69.26
2022-11-01T00:57:58.549Z,70.41
2022-11-01T00:58:58.326Z,70.50
2022-11-01T00:59:58.329Z,70.41
2022-11-01T01:00:58.401Z,70.70
2022-11-01T01:01:58.447Z,70.60
2022-11-01T01:02:58.422Z,71.84
2022-11-01T01:03:58.239Z,71.17
2022-11-01T01:04:58.221Z,71.66
2022-11-01T01:05:58.202Z,72.03
2022-11-01T01:06:58.187Z,72.23
2022-11-01T01:07:58.166Z,73.28
2022-11-01T01:08:58.152Z,72.23
2022-11-01T01:09:58.130Z,72.99
2022-11-01T01:10:58.112Z,73.19
2022-11-01T01:11:58.096Z,72.71
2022-11-01T01:12:58.079Z,73.28
2022-11-01T01:13:58.057Z,73.47
2022-11-01T01:14:58.039Z,73.47
2022-11-01T01:15:58.048Z,73.95
2022-11-01T01:16:58.018Z,73.80
2022-11-01T01:17:57.983Z,74.27
2022-11-01T01:18:57.964Z,75.68
2022-11-01T01:19:57.957Z,75.48
2022-11-01T01:20:57.929Z,75.10
2022-11-01T01:21:57.908Z,75.68
2022-11-01T01:22:57.893Z,75.29
2022-11-01T01:23:57.877Z,75.20
2022-11-01T01:24:57.860Z,75.10
2022-11-01T01:25:57.849Z,74.72
2022-11-01T01:26:57.818Z,74.76
2022-11-01T01:27:57.809Z,75.29
2022-11-01T01:28:57.786Z,75.10
2022-11-01T01:29:57.769Z,75.48
2022-11-01T01:30:57.753Z,75.58
2022-11-01T01:31:57.751Z,75.48
2022-11-01T01:32:57.793Z,75.68
2022-11-01T01:33:57.696Z,75.68
2022-11-01T01:34:57.683Z,75.87
2022-11-01T01:35:57.666Z,75.33
2022-11-01T01:36:57.643Z,75.71
2022-11-01T01:37:57.621Z,75.43
2022-11-01T01:38:57.612Z,76.39
2022-11-01T01:39:57.594Z,76.29
2022-11-01T01:40:57.568Z,76.86
2022-11-01T01:41:57.558Z,76.48
2022-11-01T01:42:57.536Z,76.86
2022-11-01T01:43:57.524Z,76.73
2022-11-01T01:44:57.499Z,76.29
2022-11-01T01:45:57.484Z,77.53
2022-11-01T01:46:57.467Z,77.34
2022-11-01T01:47:57.464Z,76.19
2022-11-01T01:48:57.438Z,75.90
2022-11-01T01:49:57.416Z,76.48
2022-11-01T01:50:57.394Z,77.06
2022-11-01T01:51:57.374Z,76.86
2022-11-01T01:52:57.355Z,76.57
2022-11-01T01:53:57.335Z,75.90
2022-11-01T01:54:57.321Z,75.81
2022-11-01T01:55:57.307Z,75.43
2022-11-01T01:56:57.286Z,75.81
2022-11-01T01:57:57.272Z,75.33
2022-11-01T01:58:57.255Z,75.71
2022-11-01T01:59:57.230Z,75.23
2022-11-01T02:00:57.220Z,74.47
2022-11-01T02:01:57.300Z,74.15
2022-11-01T02:02:57.179Z,74.05
2022-11-01T02:03:57.180Z,74.43
2022-11-01T02:04:57.144Z,74.05
2022-11-01T02:05:57.121Z,74.33
2022-11-01T02:06:57.105Z,74.76
2022-11-01T02:07:57.087Z,74.66
2022-11-01T02:08:57.071Z,74.62
2022-11-01T02:09:57.051Z,75.71
2022-11-01T02:10:57.030Z,75.71
2022-11-01T02:11:57.011Z,75.14
2022-11-01T02:12:56.998Z,76.00
2022-11-01T02:13:56.980Z,76.29
2022-11-01T02:14:56.956Z,76.48
2022-11-01T02:15:56.944Z,76.48
2022-11-01T02:16:56.925Z,76.39
2022-11-01T02:17:56.902Z,75.81
2022-11-01T02:18:56.891Z,76.57
2022-11-01T02:19:56.890Z,76.86
2022-11-01T02:20:56.849Z,75.52
2022-11-01T02:21:56.832Z,75.33
2022-11-01T02:22:56.811Z,75.52
2022-11-01T02:23:56.796Z,75.23
2022-11-01T02:24:56.777Z,75.23
2022-11-01T02:25:56.757Z,75.14
2022-11-01T02:26:56.738Z,74.66
2022-11-01T02:27:56.719Z,74.47
2022-11-01T02:28:59.366Z,74.47
2022-11-01T02:29:56.687Z,74.76
2022-11-01T02:30:56.665Z,74.47
2022-11-01T02:31:56.665Z,74.66
2022-11-01T02:32:56.633Z,74.57
2022-11-01T02:33:56.615Z,74.27
2022-11-01T02:34:56.591Z,73.80
2022-11-01T02:35:56.601Z,73.90
2022-11-01T02:36:56.558Z,74.37
2022-11-01T02:37:56.544Z,74.37
2022-11-01T02:38:56.523Z,74.85
2022-11-01T02:39:56.505Z,74.47
2022-11-01T02:40:56.490Z,74.47
2022-11-01T02:41:56.470Z,74.85
2022-11-01T02:42:56.451Z,74.37
2022-11-01T02:43:56.436Z,74.47
2022-11-01T02:44:56.413Z,74.47
2022-11-01T02:45:56.403Z,74.18
2022-11-01T02:46:56.382Z,73.03
2022-11-01T02:47:56.361Z,73.03
2022-11-01T02:48:56.339Z,72.74
2022-11-01T02:49:56.325Z,73.13
2022-11-01T02:50:56.314Z,72.94
2022-11-01T02:51:56.311Z,72.64
2022-11-01T02:52:56.274Z,72.07
2022-11-01T02:53:56.255Z,72.55
2022-11-01T02:54:56.237Z,72.17
2022-11-01T02:55:56.216Z,72.27
2022-11-01T02:56:56.200Z,72.36
2022-11-01T02:57:56.184Z,72.55
2022-11-01T02:58:56.164Z,72.36
2022-11-01T02:59:56.143Z,72.07
2022-11-01T03:00:56.216Z,71.21
2022-11-01T03:01:56.228Z,71.88
2022-11-01T03:02:56.089Z,71.11
2022-11-01T03:03:56.077Z,71.11
2022-11-01T03:04:56.056Z,71.21
2022-11-01T03:05:56.041Z,70.73
2022-11-01T03:06:56.025Z,70.54
2022-11-01T03:07:56.019Z,70.54
2022-11-01T03:08:55.988Z,70.64
2022-11-01T03:09:55.965Z,70.57
2022-11-01T03:10:55.946Z,70.76
2022-11-01T03:11:55.929Z,70.44
2022-11-01T03:12:55.907Z,70.48
2022-11-01T03:13:55.902Z,70.00
2022-11-01T03:14:55.874Z,69.90
2022-11-01T03:15:55.857Z,70.00
2022-11-01T03:16:55.838Z,70.00
2022-11-01T03:17:55.826Z,69.81
2022-11-01T03:18:55.804Z,69.62
2022-11-01T03:19:55.788Z,69.33
2022-11-01T03:20:55.768Z,68.27
2022-11-01T03:21:55.754Z,68.18
2022-11-01T03:22:55.740Z,67.99
2022-11-01T03:23:55.739Z,68.18
2022-11-01T03:24:55.702Z,68.08
2022-11-01T03:25:55.686Z,68.08
2022-11-01T03:26:55.660Z,67.89
2022-11-01T03:27:55.645Z,67.99
2022-11-01T03:29:55.608Z,68.37
2022-11-01T03:30:55.590Z,67.89
2022-11-01T03:31:55.575Z,68.18
2022-11-01T03:32:55.556Z,68.66
2022-11-01T03:33:55.538Z,68.37
2022-11-01T03:34:55.518Z,68.30
2022-11-01T03:35:55.500Z,69.17
2022-11-01T03:36:55.485Z,69.26
2022-11-01T03:37:55.466Z,70.03
2022-11-01T03:38:55.454Z,69.84
2022-11-01T03:39:55.447Z,70.13
2022-11-01T03:40:55.414Z,69.74
2022-11-01T03:41:55.400Z,70.03
2022-11-01T03:42:55.378Z,70.51
2022-11-01T03:43:55.360Z,70.51
2022-11-01T03:44:55.341Z,70.61
2022-11-01T03:45:55.324Z,70.32
2022-11-01T03:46:55.303Z,70.80
2022-11-01T03:47:55.290Z,70.80
2022-11-01T03:48:55.274Z,70.70
2022-11-01T03:49:55.258Z,70.70
2022-11-01T03:50:55.235Z,70.42
2022-11-01T03:51:55.219Z,70.42
2022-11-01T03:52:55.201Z,70.13
2022-11-01T03:53:55.184Z,69.74
2022-11-01T03:54:55.164Z,69.56
2022-11-01T03:55:55.168Z,69.17
2022-11-01T03:56:55.131Z,69.17
2022-11-01T03:57:55.113Z,69.17
2022-11-01T03:58:55.102Z,69.17
2022-11-01T03:59:55.077Z,69.17
2022-11-01T04:00:55.094Z,68.79
2022-11-01T04:01:55.240Z,69.36
2022-11-01T04:02:55.025Z,68.12
2022-11-01T04:03:55.006Z,68.21
2022-11-01T04:04:54.991Z,68.88
2022-11-01T04:05:54.971Z,68.30
2022-11-01T04:06:54.953Z,68.69
2022-11-01T04:07:54.935Z,68.69
2022-11-01T04:08:54.916Z,68.88
2022-11-01T04:09:54.898Z,68.59
2022-11-01T04:10:54.880Z,68.88
2022-11-01T04:11:54.884Z,68.59
2022-11-01T04:12:54.850Z,68.40
2022-11-01T04:13:54.827Z,67.73
2022-11-01T04:14:54.811Z,67.83
2022-11-01T04:15:54.796Z,68.21
2022-11-01T04:16:54.779Z,68.30
2022-11-01T04:17:54.758Z,68.02
2022-11-01T04:18:54.733Z,67.83
2022-11-01T04:19:54.725Z,67.92
2022-11-01T04:20:54.702Z,68.30
2022-11-01T04:21:54.686Z,68.02
2022-11-01T04:22:54.683Z,67.54
2022-11-01T04:23:54.650Z,67.92
2022-11-01T04:24:54.633Z,67.63
2022-11-01T04:25:54.615Z,67.63
2022-11-01T04:26:54.596Z,67.16
2022-11-01T04:27:54.603Z,68.02
2022-11-01T04:28:54.563Z,67.54
2022-11-01T04:29:54.544Z,67.83
2022-11-01T04:30:54.522Z,68.02
2022-11-01T04:31:54.507Z,67.83
2022-11-01T04:32:54.492Z,67.73
2022-11-01T04:33:54.475Z,67.83
2022-11-01T04:34:54.474Z,67.92
2022-11-01T04:35:54.439Z,67.54
2022-11-01T04:36:54.431Z,67.63
2022-11-01T04:37:54.402Z,67.73
2022-11-01T04:38:54.383Z,67.73
2022-11-01T04:39:54.370Z,67.63
2022-11-01T04:40:54.348Z,67.83
2022-11-01T04:41:54.332Z,67.73
2022-11-01T04:42:54.313Z,67.06
2022-11-01T04:43:54.318Z,67.73
2022-11-01T04:44:54.280Z,67.67
2022-11-01T04:45:54.264Z,67.73
2022-11-01T04:46:54.245Z,67.54
2022-11-01T04:47:54.224Z,66.71
2022-11-01T04:48:54.213Z,67.16
2022-11-01T04:49:54.191Z,67.06
2022-11-01T04:50:54.178Z,66.77
2022-11-01T04:51:54.159Z,67.19
2022-11-01T04:52:54.139Z,63.45
2022-11-01T04:53:54.126Z,65.17
2022-11-01T04:54:54.107Z,65.75
2022-11-01T04:55:54.092Z,69.01
2022-11-01T04:56:54.067Z,69.11
2022-11-01T04:57:54.055Z,69.01
2022-11-01T04:58:54.029Z,69.11
2022-11-01T04:59:54.034Z,68.34
2022-11-01T05:00:54.077Z,68.53
2022-11-01T05:01:54.158Z,68.63
2022-11-01T05:02:53.961Z,68.24
2022-11-01T05:03:53.944Z,68.05
2022-11-01T05:04:53.923Z,67.57
2022-11-01T05:05:53.911Z,67.76
2022-11-01T05:06:53.898Z,67.67
2022-11-01T05:07:53.949Z,68.05
2022-11-01T05:08:53.865Z,67.67
2022-11-01T05:09:53.835Z,67.96
2022-11-01T05:10:53.822Z,66.61
2022-11-01T05:11:53.807Z,66.90
2022-11-01T05:12:53.787Z,66.61
2022-11-01T05:13:53.773Z,66.33
2022-11-01T05:14:56.714Z,66.71
2022-11-01T05:16:18.001Z,66.71
2022-11-01T05:16:53.718Z,66.71
2022-11-01T05:17:53.699Z,67.09
2022-11-01T05:18:53.686Z,66.90
2022-11-01T05:19:53.666Z,67.00
2022-11-01T05:20:53.644Z,66.90
2022-11-01T05:21:53.629Z,66.80
2022-11-01T05:22:53.609Z,67.19
2022-11-01T05:23:53.593Z,66.80
2022-11-01T05:24:53.575Z,66.90
2022-11-01T05:25:53.556Z,66.90
2022-11-01T05:26:53.540Z,66.90
2022-11-01T05:27:53.527Z,66.90
2022-11-01T05:28:53.504Z,66.71
2022-11-01T05:29:53.489Z,66.42
2022-11-01T05:30:53.470Z,65.84
2022-11-01T05:31:53.471Z,66.03
2022-11-01T05:32:53.433Z,66.03
2022-11-01T05:33:53.415Z,66.13
2022-11-01T05:34:53.398Z,66.42
2022-11-01T05:35:53.385Z,66.33
2022-11-01T05:36:53.366Z,66.71
2022-11-01T05:37:53.352Z,66.07
2022-11-01T05:38:53.335Z,65.94
2022-11-01T05:39:53.316Z,66.13
2022-11-01T05:40:53.299Z,66.03
2022-11-01T05:41:55.561Z,66.03
2022-11-01T05:42:53.258Z,65.75
2022-11-01T05:43:53.245Z,65.84
2022-11-01T05:44:53.227Z,66.03
2022-11-01T05:45:53.208Z,65.94
2022-11-01T05:46:53.195Z,65.56
2022-11-01T05:47:53.197Z,65.08
2022-11-01T05:48:53.155Z,65.46
2022-11-01T05:49:53.141Z,64.69
2022-11-01T05:50:53.118Z,65.27
2022-11-01T05:51:53.101Z,64.59
2022-11-01T05:52:53.087Z,64.31
2022-11-01T05:53:53.071Z,63.73
2022-11-01T05:54:53.052Z,63.92
2022-11-01T05:55:53.031Z,63.92
2022-11-01T05:56:53.018Z,63.83
2022-11-01T05:57:52.997Z,64.50
2022-11-01T05:58:52.984Z,64.89
2022-11-01T05:59:52.966Z,64.31
2022-11-01T06:00:52.947Z,64.40
2022-11-01T06:01:53.071Z,64.31
2022-11-01T06:02:52.909Z,64.59
2022-11-01T06:03:52.912Z,64.31
2022-11-01T06:04:52.880Z,64.69
2022-11-01T06:05:52.868Z,66.03
2022-11-01T06:06:52.844Z,65.84
2022-11-01T06:07:52.825Z,66.03
2022-11-01T06:08:52.816Z,66.03
2022-11-01T06:09:52.784Z,66.71
2022-11-01T06:10:52.767Z,67.76
2022-11-01T06:11:52.751Z,67.86
2022-11-01T06:12:52.735Z,67.38
2022-11-01T06:13:52.721Z,67.76
2022-11-01T06:14:52.702Z,67.38
2022-11-01T06:15:52.681Z,67.38
2022-11-01T06:16:52.672Z,67.57
2022-11-01T06:17:52.649Z,68.15
2022-11-01T06:18:52.637Z,68.82
2022-11-01T06:19:52.634Z,68.24
2022-11-01T06:20:52.596Z,68.82
2022-11-01T06:21:52.581Z,69.59
2022-11-01T06:22:52.562Z,69.59
2022-11-01T06:23:52.543Z,69.87
2022-11-01T06:24:52.533Z,70.17
2022-11-01T06:25:52.507Z,70.64
2022-11-01T06:26:52.490Z,70.64
2022-11-01T06:27:52.471Z,70.55
2022-11-01T06:28:52.456Z,70.64
2022-11-01T06:29:52.439Z,70.55
2022-11-01T06:30:52.459Z,70.93
2022-11-01T06:31:52.401Z,70.36
2022-11-01T06:32:52.387Z,71.03
2022-11-01T06:33:52.372Z,71.12
2022-11-01T06:34:52.356Z,71.80
2022-11-01T06:35:52.347Z,73.18
2022-11-01T06:36:52.315Z,73.37
2022-11-01T06:37:52.297Z,74.04
2022-11-01T06:38:52.279Z,76.02
2022-11-01T06:39:52.262Z,78.70
2022-11-01T06:40:52.245Z,79.22
2022-11-01T06:41:52.225Z,79.52
2022-11-01T06:42:52.212Z,81.72
2022-11-01T06:43:52.188Z,83.16
2022-11-01T06:44:52.180Z,84.03
2022-11-01T06:45:52.156Z,84.12
2022-11-01T06:46:52.142Z,83.93
2022-11-01T06:47:52.119Z,83.36
2022-11-01T06:48:52.105Z,82.97
2022-11-01T06:49:52.084Z,82.74
2022-11-01T06:50:52.069Z,83.31
2022-11-01T06:51:52.068Z,84.60
2022-11-01T06:52:52.032Z,87.19
2022-11-01T06:53:52.019Z,86.91
2022-11-01T06:54:52.001Z,87.29
2022-11-01T06:55:51.985Z,88.54
2022-11-01T06:56:51.964Z,92.86
2022-11-01T06:57:51.945Z,92.19
2022-11-01T06:58:51.927Z,93.68
2022-11-01T06:59:51.912Z,96.42
2022-11-01T07:00:52.007Z,97.86
2022-11-01T07:01:52.060Z,99.10
2022-11-01T07:02:51.909Z,99.58
2022-11-01T07:03:51.844Z,99.68
2022-11-01T07:04:51.826Z,99.78
2022-11-01T07:05:51.804Z,99.49
2022-11-01T07:06:51.790Z,99.99
2022-11-01T07:07:51.789Z,99.99
2022-11-01T07:08:51.750Z,99.99
2022-11-01T07:09:51.743Z,99.99
2022-11-01T07:10:51.716Z,99.99
2022-11-01T07:11:51.702Z,99.99
2022-11-01T07:12:51.687Z,99.99
2022-11-01T07:13:51.665Z,99.99
2022-11-01T07:14:51.649Z,99.99
2022-11-01T07:15:51.677Z,99.99
2022-11-01T07:16:51.610Z,99.99
2022-11-01T07:17:51.599Z,99.99
2022-11-01T07:18:51.579Z,99.99
2022-11-01T07:19:51.564Z,99.99
2022-11-01T07:20:51.548Z,99.99
2022-11-01T07:21:51.541Z,99.99
2022-11-01T07:22:51.512Z,99.99
2022-11-01T07:23:51.505Z,99.99
2022-11-01T07:24:51.471Z,99.99
2022-11-01T07:25:51.452Z,99.99
2022-11-01T07:26:51.440Z,99.99
2022-11-01T07:27:51.417Z,99.99
2022-11-01T07:28:51.404Z,99.99
2022-11-01T07:29:51.383Z,99.99
2022-11-01T07:30:51.370Z,99.99
2022-11-01T07:31:51.351Z,99.99
2022-11-01T07:32:51.332Z,99.99
2022-11-01T07:33:51.314Z,99.99
2022-11-01T07:34:51.299Z,99.99
2022-11-01T07:35:51.280Z,99.99
2022-11-01T07:36:51.257Z,99.99
2022-11-01T07:37:51.249Z,99.99
2022-11-01T07:38:51.230Z,99.99
2022-11-01T07:39:51.224Z,99.99
2022-11-01T07:40:51.191Z,99.99
2022-11-01T07:41:51.174Z,99.99
2022-11-01T07:42:51.152Z,99.99
2022-11-01T07:43:51.133Z,99.99
2022-11-01T07:44:51.119Z,99.99
2022-11-01T07:45:51.100Z,99.99
2022-11-01T07:46:51.085Z,99.99
2022-11-01T07:47:51.066Z,99.99
2022-11-01T07:48:51.051Z,99.99
2022-11-01T07:49:51.028Z,99.99
2022-11-01T07:50:51.019Z,99.99
2022-11-01T07:51:50.994Z,99.99
2022-11-01T07:52:50.982Z,99.99
2022-11-01T07:53:51.006Z,99.99
2022-11-01T07:54:50.941Z,99.99
2022-11-01T07:55:50.963Z,99.99
2022-11-01T07:56:50.914Z,99.99
2022-11-01T07:57:50.897Z,99.99
2022-11-01T07:58:50.875Z,99.99
2022-11-01T07:59:50.863Z,99.99
2022-11-01T08:00:50.895Z,99.99
2022-11-01T08:01:50.907Z,99.99
2022-11-01T08:02:50.804Z,99.99
2022-11-01T08:03:50.788Z,99.99
2022-11-01T08:04:50.773Z,99.99
2022-11-01T08:05:50.756Z,99.99
2022-11-01T08:06:52.210Z,99.99
2022-11-01T08:07:50.731Z,99.99
2022-11-01T08:08:50.700Z,99.99
2022-11-01T08:09:50.688Z,99.99
2022-11-01T08:10:50.672Z,99.99
2022-11-01T08:11:50.673Z,99.99
2022-11-01T08:12:50.631Z,99.99
2022-11-01T08:13:50.616Z,99.99
2022-11-01T08:14:50.600Z,99.99
2022-11-01T08:15:50.591Z,99.99
2022-11-01T08:16:50.566Z,99.99
2022-11-01T08:17:50.547Z,99.99
2022-11-01T08:18:50.536Z,99.99
2022-11-01T08:19:50.512Z,99.99
2022-11-01T08:20:50.501Z,99.99
2022-11-01T08:21:50.476Z,99.99
2022-11-01T08:22:50.464Z,99.99
2022-11-01T08:23:50.444Z,99.99
2022-11-01T08:24:50.426Z,99.99
2022-11-01T08:25:50.408Z,99.99
2022-11-01T08:26:50.394Z,99.99
2022-11-01T08:27:50.399Z,92.19
2022-11-01T08:28:50.363Z,88.81
2022-11-01T08:29:50.349Z,85.93
2022-11-01T08:30:50.341Z,85.40
2022-11-01T08:31:50.322Z,85.98
2022-11-01T08:32:50.314Z,85.98
2022-11-01T08:33:50.292Z,87.29
2022-11-01T08:34:50.283Z,90.94
2022-11-01T08:35:50.938Z,91.99
2022-11-01T08:36:50.254Z,88.29
2022-11-01T08:37:50.250Z,81.21
2022-11-01T08:38:50.230Z,78.81
2022-11-01T08:39:50.214Z,77.44
2022-11-01T08:40:50.205Z,75.49
2022-11-01T08:41:50.191Z,72.85
2022-11-01T08:42:50.185Z,73.20
2022-11-01T08:43:50.187Z,75.28
2022-11-01T08:44:50.158Z,74.30
2022-11-01T08:45:50.149Z,72.31
2022-11-01T08:46:50.138Z,70.19
2022-11-01T08:47:50.124Z,69.04
2022-11-01T08:48:50.116Z,68.30
2022-11-01T08:49:50.107Z,65.56
2022-11-01T08:50:50.101Z,64.69
2022-11-01T08:51:50.087Z,63.37
2022-11-01T08:52:50.081Z,64.59
2022-11-01T08:53:50.072Z,64.08
2022-11-01T08:54:50.066Z,65.40
2022-11-01T08:55:50.087Z,64.95
2022-11-01T08:56:50.048Z,64.08
2022-11-01T08:57:50.049Z,64.53
2022-11-01T08:58:50.036Z,65.05
2022-11-01T08:59:50.052Z,65.95
2022-11-01T09:00:50.088Z,65.91
2022-11-01T09:01:50.119Z,65.75
2022-11-01T09:02:50.008Z,64.98
2022-11-01T09:03:49.995Z,65.85
2022-11-01T09:04:49.997Z,65.91
2022-11-01T09:05:49.997Z,67.04
2022-11-01T09:06:49.981Z,66.91
2022-11-01T09:07:49.970Z,67.07
2022-11-01T09:08:49.970Z,65.66
2022-11-01T09:09:49.961Z,64.24
2022-11-01T09:10:49.956Z,62.76
2022-11-01T09:11:49.947Z,64.08
2022-11-01T09:12:49.940Z,64.59
2022-11-01T09:13:49.933Z,63.79
2022-11-01T09:14:49.925Z,64.24
2022-11-01T09:15:49.939Z,62.98
2022-11-01T09:16:49.913Z,62.99
2022-11-01T09:17:49.906Z,64.66
2022-11-01T09:18:49.907Z,64.59
2022-11-01T09:19:49.899Z,63.31
2022-11-01T09:20:49.887Z,63.43
2022-11-01T09:21:49.879Z,63.05
2022-11-01T09:22:49.873Z,64.28
2022-11-01T09:23:49.880Z,64.72
2022-11-01T09:24:49.862Z,64.72
2022-11-01T09:25:49.857Z,62.24
2022-11-01T09:26:49.849Z,60.82
2022-11-01T09:27:49.837Z,60.24
2022-11-01T09:28:49.838Z,59.98
2022-11-01T09:29:51.947Z,59.66
2022-11-01T09:31:01.023Z,59.84
2022-11-01T09:31:49.832Z,58.36
2022-11-01T09:32:49.809Z,56.54
2022-11-01T09:33:49.800Z,55.52
2022-11-01T09:34:49.797Z,57.79
2022-11-01T09:35:52.139Z,59.31
2022-11-01T09:36:49.781Z,60.09
2022-11-01T09:37:49.779Z,60.86
2022-11-01T09:38:49.771Z,62.34
2022-11-01T09:39:49.764Z,61.02
2022-11-01T09:40:49.757Z,60.73
2022-11-01T09:41:49.756Z,61.15
2022-11-01T09:42:49.746Z,60.28
2022-11-01T09:43:49.738Z,59.56
2022-11-01T09:44:49.727Z,58.63
2022-11-01T09:45:49.739Z,58.50
2022-11-01T09:46:49.721Z,58.57
2022-11-01T09:47:49.730Z,59.22
2022-11-01T09:48:49.701Z,59.60
2022-11-01T09:49:49.695Z,59.70
2022-11-01T09:50:49.689Z,59.25
2022-11-01T09:51:49.678Z,58.97
2022-11-01T09:52:49.673Z,60.64
2022-11-01T09:53:49.666Z,61.05
2022-11-01T09:54:49.659Z,59.73
2022-11-01T09:55:49.656Z,59.15
2022-11-01T09:56:49.639Z,58.60
2022-11-01T09:57:49.631Z,59.89
2022-11-01T09:58:49.629Z,60.14
2022-11-01T09:59:49.617Z,58.98
2022-11-01T10:00:49.675Z,58.98
2022-11-01T10:01:49.728Z,59.92
2022-11-01T10:02:49.601Z,59.63
2022-11-01T10:03:49.605Z,59.89
2022-11-01T10:04:49.582Z,59.70
2022-11-01T10:05:49.571Z,60.57
2022-11-01T10:06:49.567Z,59.47
2022-11-01T10:07:49.571Z,59.41
2022-11-01T10:08:49.552Z,59.44
2022-11-01T10:09:49.544Z,58.98
2022-11-01T10:10:49.538Z,59.69
2022-11-01T10:11:49.527Z,58.70
2022-11-01T10:12:49.520Z,59.31
2022-11-01T10:13:49.506Z,59.70
2022-11-01T10:14:49.503Z,60.67
2022-11-01T10:15:49.489Z,61.02
2022-11-01T10:16:49.487Z,61.05
2022-11-01T10:17:52.095Z,61.19
2022-11-01T10:18:49.463Z,60.83
2022-11-01T10:19:49.508Z,61.35
2022-11-01T10:20:49.451Z,62.09
2022-11-01T10:21:49.440Z,63.28
2022-11-01T10:22:49.429Z,62.44
2022-11-01T10:23:49.420Z,61.86
2022-11-01T10:24:49.414Z,62.15
2022-11-01T10:25:49.404Z,62.54
2022-11-01T10:26:49.387Z,62.15
2022-11-01T10:27:49.383Z,62.02
2022-11-01T10:28:49.373Z,62.89
2022-11-01T10:29:49.362Z,63.02
2022-11-01T10:30:49.359Z,62.05
2022-11-01T10:31:49.337Z,63.18
2022-11-01T10:32:49.335Z,63.18
2022-11-01T10:33:49.324Z,63.28
2022-11-01T10:34:49.310Z,62.54
2022-11-01T10:35:49.323Z,61.96
2022-11-01T10:36:49.294Z,61.77
2022-11-01T10:38:03.919Z,63.08
2022-11-01T10:39:23.336Z,63.50
2022-11-01T10:39:58.934Z,62.18
2022-11-01T10:40:49.272Z,60.82
2022-11-01T10:41:49.254Z,60.92
2022-11-01T10:42:49.233Z,61.12
2022-11-01T10:43:49.240Z,63.21
2022-11-01T10:44:49.213Z,62.92
2022-11-01T10:45:49.214Z,64.24
2022-11-01T10:46:49.215Z,62.18
2022-11-01T10:47:49.190Z,61.54
2022-11-01T10:48:49.180Z,62.02
2022-11-01T10:50:06.605Z,62.08
2022-11-01T10:50:49.155Z,61.51
2022-11-01T10:51:49.173Z,61.66
2022-11-01T10:52:49.136Z,60.82
2022-11-01T10:53:49.130Z,59.79
2022-11-01T10:54:49.118Z,59.38
2022-11-01T10:55:49.102Z,62.63
2022-11-01T10:56:49.095Z,62.05
2022-11-01T10:57:49.091Z,62.15
2022-11-01T10:58:49.076Z,61.77
2022-11-01T10:59:49.065Z,62.86
2022-11-01T11:00:49.143Z,62.50
2022-11-01T11:01:49.188Z,62.08
2022-11-01T11:02:49.041Z,62.18
2022-11-01T11:03:49.033Z,63.47
2022-11-01T11:04:49.019Z,63.12
2022-11-01T11:05:49.012Z,63.34
2022-11-01T11:06:49.006Z,62.40
2022-11-01T11:07:49.003Z,61.83
2022-11-01T11:08:49.038Z,63.34
2022-11-01T11:09:49.028Z,64.59
2022-11-01T11:10:48.971Z,64.43
2022-11-01T11:11:48.939Z,63.79
2022-11-01T11:12:48.941Z,62.79
2022-11-01T11:13:48.925Z,63.28
2022-11-01T11:14:48.914Z,63.31
2022-11-01T11:15:48.921Z,63.31
2022-11-01T11:16:48.895Z,62.28
2022-11-01T11:17:48.882Z,62.60
2022-11-01T11:18:48.874Z,63.92
2022-11-01T11:19:48.861Z,64.43
2022-11-01T11:20:48.848Z,63.37
2022-11-01T11:21:48.849Z,62.44
2022-11-01T11:22:48.839Z,62.28
2022-11-01T11:23:48.833Z,62.21
2022-11-01T11:24:48.805Z,60.96
2022-11-01T11:25:48.798Z,60.47
2022-11-01T11:26:52.908Z,61.08
2022-11-01T11:27:48.771Z,61.02
2022-11-01T11:28:48.772Z,60.93
2022-11-01T11:29:48.866Z,61.54
2022-11-01T11:30:48.743Z,60.54
2022-11-01T11:31:48.733Z,61.05
2022-11-01T11:32:48.717Z,60.09
2022-11-01T11:33:48.705Z,60.89
2022-11-01T11:34:48.704Z,62.02
2022-11-01T11:35:48.704Z,63.09
2022-11-01T11:36:48.675Z,63.34
2022-11-01T11:37:48.666Z,63.85
2022-11-01T11:38:48.655Z,64.24
2022-11-01T11:39:48.676Z,63.85
2022-11-01T11:40:48.636Z,63.40
2022-11-01T11:41:48.624Z,63.40
2022-11-01T11:42:48.611Z,62.66
2022-11-01T11:43:48.599Z,62.18
2022-11-01T11:44:52.020Z,60.35
2022-11-01T11:45:48.575Z,61.05
2022-11-01T11:46:48.568Z,60.83
2022-11-01T11:47:48.554Z,61.57
2022-11-01T11:48:48.548Z,61.96
2022-11-01T11:49:48.539Z,62.47
2022-11-01T11:50:48.534Z,61.15
2022-11-01T11:51:48.510Z,59.77
2022-11-01T11:52:48.507Z,61.41
2022-11-01T11:53:48.495Z,61.99
2022-11-01T11:54:48.483Z,61.99
2022-11-01T11:55:48.485Z,61.22
2022-11-01T11:56:48.471Z,61.47
2022-11-01T11:57:48.447Z,62.99
2022-11-01T11:58:48.441Z,63.09
2022-11-01T11:59:48.428Z,64.08
2022-11-01T12:00:48.422Z,63.43
2022-11-01T12:01:48.614Z,62.28
2022-11-01T12:02:48.435Z,61.38
2022-11-01T12:03:48.391Z,62.08
2022-11-01T12:04:48.374Z,61.89
2022-11-01T12:05:48.356Z,61.54
2022-11-01T12:06:48.358Z,61.89
2022-11-01T12:07:48.344Z,61.15
2022-11-01T12:08:48.323Z,60.96
2022-11-01T12:09:48.317Z,60.67
2022-11-01T12:10:48.301Z,60.96
2022-11-01T12:11:48.310Z,61.60
2022-11-01T12:12:48.285Z,61.70
2022-11-01T12:13:48.273Z,61.57
2022-11-01T12:14:48.267Z,62.92
2022-11-01T12:15:48.243Z,62.79
2022-11-01T12:16:48.236Z,63.18
2022-11-01T12:17:48.241Z,63.76
2022-11-01T12:18:48.210Z,64.92
2022-11-01T12:19:48.200Z,64.79
2022-11-01T12:20:48.188Z,65.72
2022-11-01T12:21:48.177Z,66.88
2022-11-01T12:22:48.178Z,66.33
2022-11-01T12:23:48.157Z,65.75
2022-11-01T12:24:48.148Z,65.47
2022-11-01T12:25:48.130Z,65.01
2022-11-01T12:26:48.126Z,65.01
2022-11-01T12:27:48.129Z,64.82
2022-11-01T12:28:48.095Z,65.91
2022-11-01T12:29:48.084Z,66.08
2022-11-01T12:30:48.074Z,66.40
2022-11-01T12:31:48.074Z,66.14
2022-11-01T12:32:48.056Z,65.14
2022-11-01T12:33:48.040Z,65.43
2022-11-01T12:34:48.031Z,65.20
2022-11-01T12:35:48.015Z,65.24
2022-11-01T12:36:48.016Z,65.63
2022-11-01T12:37:47.992Z,65.05
2022-11-01T12:38:47.980Z,64.79
2022-11-01T12:39:47.976Z,66.33
2022-11-01T12:40:47.964Z,66.36
2022-11-01T12:41:47.950Z,65.88
2022-11-01T12:42:47.938Z,65.88
2022-11-01T12:43:47.939Z,65.88
2022-11-01T12:44:47.924Z,66.14
2022-11-01T12:45:47.899Z,67.36
2022-11-01T12:46:47.897Z,67.74
2022-11-01T12:47:47.883Z,67.46
2022-11-01T12:48:47.863Z,67.84
2022-11-01T12:49:47.854Z,68.13
2022-11-01T12:50:47.851Z,68.90
2022-11-01T12:51:47.834Z,68.32
2022-11-01T12:52:47.820Z,68.77
2022-11-01T12:53:47.804Z,69.73